sensor_id;sensor_type;location;lat;lon;timestamp;pressure;altitude;pressure_sealevel;temperature;humidity
35519;BME280;21627;48.216;16.482;2023-02-01T00:01:08;99856.69;;;3.85;94.75
35519;BME280;21627;48.216;16.482;2023-02-01T00:03:35;99851.78;;;3.92;94.28
35519;BME280;21627;48.216;16.482;2023-02-01T00:06:03;99850.84;;;3.89;94.23
35519;BME280;21627;48.216;16.482;2023-02-01T00:08:30;99846.47;;;3.85;94.71
35519;BME280;21627;48.216;16.482;2023-02-01T00:11:02;99838.06;;;3.89;94.75
35519;BME280;21627;48.216;16.482;2023-02-01T00:13:32;99826.13;;;3.88;94.14
35519;BME280;21627;48.216;16.482;2023-02-01T00:16:05;99836.50;;;3.95;94.48
35519;BME280;21627;48.216;16.482;2023-02-01T00:18:34;99805.44;;;3.81;95.32
35519;BME280;21627;48.216;16.482;2023-02-01T00:21:01;99828.25;;;3.73;95.66
35519;BME280;21627;48.216;16.482;2023-02-01T00:23:33;99813.28;;;3.87;95.31
35519;BME280;21627;48.216;16.482;2023-02-01T00:26:03;99824.22;;;3.83;95.42
35519;BME280;21627;48.216;16.482;2023-02-01T00:28:31;99811.41;;;3.81;95.24
35519;BME280;21627;48.216;16.482;2023-02-01T00:31:02;99813.41;;;3.92;94.76
35519;BME280;21627;48.216;16.482;2023-02-01T00:33:31;99803.22;;;3.93;94.41
35519;BME280;21627;48.216;16.482;2023-02-01T00:36:03;99825.53;;;3.99;93.81
35519;BME280;21627;48.216;16.482;2023-02-01T00:38:32;99829.75;;;3.97;93.80
35519;BME280;21627;48.216;16.482;2023-02-01T00:41:18;99827.69;;;3.85;94.46
35519;BME280;21627;48.216;16.482;2023-02-01T00:43:47;99836.44;;;3.92;94.71
35519;BME280;21627;48.216;16.482;2023-02-01T00:46:17;99822.78;;;3.91;94.15
35519;BME280;21627;48.216;16.482;2023-02-01T00:48:45;99834.78;;;3.94;94.21
35519;BME280;21627;48.216;16.482;2023-02-01T00:51:17;99829.47;;;3.87;94.51
35519;BME280;21627;48.216;16.482;2023-02-01T00:53:48;99848.50;;;3.97;94.33
35519;BME280;21627;48.216;16.482;2023-02-01T00:56:17;99850.13;;;3.94;94.63
35519;BME280;21627;48.216;16.482;2023-02-01T00:58:44;99850.22;;;3.97;94.29
35519;BME280;21627;48.216;16.482;2023-02-01T01:01:26;99870.69;;;3.97;94.41
35519;BME280;21627;48.216;16.482;2023-02-01T01:03:58;99871.94;;;4.11;93.65
35519;BME280;21627;48.216;16.482;2023-02-01T01:06:32;99857.81;;;3.94;93.98
35519;BME280;21627;48.216;16.482;2023-02-01T01:09:03;99877.50;;;3.98;94.25
35519;BME280;21627;48.216;16.482;2023-02-01T01:11:35;99892.19;;;4.03;94.09
35519;BME280;21627;48.216;16.482;2023-02-01T01:14:04;99903.38;;;4.07;94.06
35519;BME280;21627;48.216;16.482;2023-02-01T01:16:32;99894.84;;;4.08;93.73
35519;BME280;21627;48.216;16.482;2023-02-01T01:19:01;99874.94;;;3.96;94.34
35519;BME280;21627;48.216;16.482;2023-02-01T01:21:28;99899.97;;;4.08;93.94
35519;BME280;21627;48.216;16.482;2023-02-01T01:23:59;99893.19;;;4.08;93.50
35519;BME280;21627;48.216;16.482;2023-02-01T01:26:28;99881.41;;;4.14;92.68
35519;BME280;21627;48.216;16.482;2023-02-01T01:28:58;99884.41;;;4.00;93.18
35519;BME280;21627;48.216;16.482;2023-02-01T01:31:28;99888.16;;;4.11;92.54
35519;BME280;21627;48.216;16.482;2023-02-01T01:33:59;99888.84;;;4.06;92.56
35519;BME280;21627;48.216;16.482;2023-02-01T01:36:28;99871.22;;;4.17;91.81
35519;BME280;21627;48.216;16.482;2023-02-01T01:38:55;99873.41;;;4.03;92.30
35519;BME280;21627;48.216;16.482;2023-02-01T01:41:27;99874.38;;;4.06;92.31
35519;BME280;21627;48.216;16.482;2023-02-01T01:44:04;99870.94;;;4.06;92.56
35519;BME280;21627;48.216;16.482;2023-02-01T01:46:37;99872.81;;;4.13;92.24
35519;BME280;21627;48.216;16.482;2023-02-01T01:49:16;99873.59;;;4.10;92.01
35519;BME280;21627;48.216;16.482;2023-02-01T01:51:55;99860.94;;;4.15;91.98
35519;BME280;21627;48.216;16.482;2023-02-01T01:54:33;99871.25;;;4.18;92.02
35519;BME280;21627;48.216;16.482;2023-02-01T01:57:09;99855.03;;;4.16;91.40
35519;BME280;21627;48.216;16.482;2023-02-01T01:59:40;99851.47;;;4.11;91.91
35519;BME280;21627;48.216;16.482;2023-02-01T02:02:10;99838.63;;;4.09;91.84
35519;BME280;21627;48.216;16.482;2023-02-01T02:04:37;99856.66;;;4.14;91.76
35519;BME280;21627;48.216;16.482;2023-02-01T02:07:11;99837.13;;;4.18;91.71
35519;BME280;21627;48.216;16.482;2023-02-01T02:09:39;99872.97;;;4.18;92.45
35519;BME280;21627;48.216;16.482;2023-02-01T02:12:13;99849.72;;;4.10;92.70
35519;BME280;21627;48.216;16.482;2023-02-01T02:14:41;99877.16;;;4.16;92.17
35519;BME280;21627;48.216;16.482;2023-02-01T02:39:06;99879.38;;;4.33;93.37
35519;BME280;21627;48.216;16.482;2023-02-01T02:42:02;99866.09;;;4.48;92.54
35519;BME280;21627;48.216;16.482;2023-02-01T02:45:47;99891.41;;;4.36;93.44
35519;BME280;21627;48.216;16.482;2023-02-01T02:51:34;99884.41;;;4.30;93.18
35519;BME280;21627;48.216;16.482;2023-02-01T02:54:29;99898.44;;;4.45;92.18
35519;BME280;21627;48.216;16.482;2023-02-01T02:57:37;99899.19;;;4.41;92.19
35519;BME280;21627;48.216;16.482;2023-02-01T03:00:32;99891.59;;;4.44;91.98
35519;BME280;21627;48.216;16.482;2023-02-01T03:03:19;99899.31;;;4.45;92.31
35519;BME280;21627;48.216;16.482;2023-02-01T03:06:14;99878.03;;;4.48;91.78
35519;BME280;21627;48.216;16.482;2023-02-01T03:08:46;99886.50;;;4.45;92.02
35519;BME280;21627;48.216;16.482;2023-02-01T03:11:17;99893.25;;;4.42;92.36
35519;BME280;21627;48.216;16.482;2023-02-01T03:13:57;99898.38;;;4.42;92.55
35519;BME280;21627;48.216;16.482;2023-02-01T03:19:14;99890.72;;;4.43;91.08
35519;BME280;21627;48.216;16.482;2023-02-01T03:21:48;99886.44;;;4.42;90.57
35519;BME280;21627;48.216;16.482;2023-02-01T03:24:27;99887.78;;;4.29;91.69
35519;BME280;21627;48.216;16.482;2023-02-01T03:27:32;99901.72;;;4.39;90.93
35519;BME280;21627;48.216;16.482;2023-02-01T03:30:20;99896.81;;;4.47;89.72
35519;BME280;21627;48.216;16.482;2023-02-01T03:32:51;99891.41;;;4.38;89.90
35519;BME280;21627;48.216;16.482;2023-02-01T03:36:03;99885.19;;;4.28;90.46
35519;BME280;21627;48.216;16.482;2023-02-01T03:41:58;99889.63;;;4.33;89.73
35519;BME280;21627;48.216;16.482;2023-02-01T03:47:49;99901.25;;;4.22;91.71
35519;BME280;21627;48.216;16.482;2023-02-01T03:50:22;99882.50;;;4.23;91.61
35519;BME280;21627;48.216;16.482;2023-02-01T03:53:12;99890.16;;;4.23;90.63
35519;BME280;21627;48.216;16.482;2023-02-01T03:55:42;99888.56;;;4.27;91.13
35519;BME280;21627;48.216;16.482;2023-02-01T03:58:15;99908.28;;;4.29;91.58
35519;BME280;21627;48.216;16.482;2023-02-01T04:00:56;99901.44;;;4.30;91.19
35519;BME280;21627;48.216;16.482;2023-02-01T04:03:26;99887.91;;;4.34;90.13
35519;BME280;21627;48.216;16.482;2023-02-01T04:05:56;99910.13;;;4.35;90.21
35519;BME280;21627;48.216;16.482;2023-02-01T04:08:25;99920.41;;;4.37;90.61
35519;BME280;21627;48.216;16.482;2023-02-01T04:10:52;99907.53;;;4.33;90.38
35519;BME280;21627;48.216;16.482;2023-02-01T04:13:19;99902.16;;;4.24;90.58
35519;BME280;21627;48.216;16.482;2023-02-01T04:15:47;99902.22;;;4.26;91.14
35519;BME280;21627;48.216;16.482;2023-02-01T04:18:20;99897.94;;;4.26;90.73
35519;BME280;21627;48.216;16.482;2023-02-01T04:20:47;99917.94;;;4.40;91.20
35519;BME280;21627;48.216;16.482;2023-02-01T04:23:14;99906.31;;;4.21;91.80
35519;BME280;21627;48.216;16.482;2023-02-01T04:25:42;99912.66;;;4.33;91.80
35519;BME280;21627;48.216;16.482;2023-02-01T04:28:09;99914.16;;;4.27;92.87
35519;BME280;21627;48.216;16.482;2023-02-01T04:30:36;99915.28;;;4.37;92.67
35519;BME280;21627;48.216;16.482;2023-02-01T04:33:04;99909.06;;;4.27;93.27
35519;BME280;21627;48.216;16.482;2023-02-01T04:35:34;99887.78;;;4.29;93.59
35519;BME280;21627;48.216;16.482;2023-02-01T04:38:01;99898.94;;;4.31;92.78
35519;BME280;21627;48.216;16.482;2023-02-01T04:40:28;99905.00;;;4.35;93.71
35519;BME280;21627;48.216;16.482;2023-02-01T04:42:55;99904.00;;;4.28;94.77
35519;BME280;21627;48.216;16.482;2023-02-01T04:45:23;99897.25;;;4.32;95.08
35519;BME280;21627;48.216;16.482;2023-02-01T04:47:50;99882.72;;;4.31;95.24
35519;BME280;21627;48.216;16.482;2023-02-01T04:50:17;99875.84;;;4.28;94.90
35519;BME280;21627;48.216;16.482;2023-02-01T04:52:44;99866.31;;;4.24;95.71
35519;BME280;21627;48.216;16.482;2023-02-01T04:55:12;99884.28;;;4.26;96.99
35519;BME280;21627;48.216;16.482;2023-02-01T04:57:42;99874.94;;;4.28;96.71
35519;BME280;21627;48.216;16.482;2023-02-01T05:00:10;99868.22;;;4.31;96.98
35519;BME280;21627;48.216;16.482;2023-02-01T05:02:38;99866.59;;;4.33;96.26
35519;BME280;21627;48.216;16.482;2023-02-01T05:05:05;99870.09;;;4.37;97.60
35519;BME280;21627;48.216;16.482;2023-02-01T05:07:33;99877.81;;;4.39;97.33
35519;BME280;21627;48.216;16.482;2023-02-01T05:10:00;99882.94;;;4.39;97.81
35519;BME280;21627;48.216;16.482;2023-02-01T05:12:27;99878.88;;;4.47;97.31
35519;BME280;21627;48.216;16.482;2023-02-01T05:15:13;99880.47;;;4.43;97.15
35519;BME280;21627;48.216;16.482;2023-02-01T05:17:40;99873.69;;;4.44;97.86
35519;BME280;21627;48.216;16.482;2023-02-01T05:20:11;99877.19;;;4.47;98.10
35519;BME280;21627;48.216;16.482;2023-02-01T05:22:38;99863.53;;;4.48;98.75
35519;BME280;21627;48.216;16.482;2023-02-01T05:25:09;99884.84;;;4.47;98.81
35519;BME280;21627;48.216;16.482;2023-02-01T05:27:39;99880.00;;;4.58;97.92
35519;BME280;21627;48.216;16.482;2023-02-01T05:30:07;99873.28;;;4.62;97.59
35519;BME280;21627;48.216;16.482;2023-02-01T05:32:35;99866.47;;;4.62;98.13
35519;BME280;21627;48.216;16.482;2023-02-01T05:35:02;99867.38;;;4.64;98.37
35519;BME280;21627;48.216;16.482;2023-02-01T05:37:30;99874.28;;;4.67;98.11
35519;BME280;21627;48.216;16.482;2023-02-01T05:39:57;99858.72;;;4.59;98.86
35519;BME280;21627;48.216;16.482;2023-02-01T05:42:24;99862.06;;;4.57;99.50
35519;BME280;21627;48.216;16.482;2023-02-01T05:44:51;99875.84;;;4.62;100.00
35519;BME280;21627;48.216;16.482;2023-02-01T05:47:18;99870.06;;;4.69;99.28
35519;BME280;21627;48.216;16.482;2023-02-01T05:49:47;99867.41;;;4.66;100.00
35519;BME280;21627;48.216;16.482;2023-02-01T05:52:14;99847.63;;;4.59;99.80
35519;BME280;21627;48.216;16.482;2023-02-01T05:54:46;99856.28;;;4.64;100.00
35519;BME280;21627;48.216;16.482;2023-02-01T05:57:14;99874.28;;;4.67;99.79
35519;BME280;21627;48.216;16.482;2023-02-01T05:59:42;99860.50;;;4.63;99.73
35519;BME280;21627;48.216;16.482;2023-02-01T06:02:12;99854.50;;;4.61;100.00
35519;BME280;21627;48.216;16.482;2023-02-01T06:04:39;99849.25;;;4.57;100.00
35519;BME280;21627;48.216;16.482;2023-02-01T06:07:08;99857.06;;;4.61;99.44
35519;BME280;21627;48.216;16.482;2023-02-01T06:09:39;99867.41;;;4.66;99.32
35519;BME280;21627;48.216;16.482;2023-02-01T06:12:07;99860.50;;;4.63;99.72
35519;BME280;21627;48.216;16.482;2023-02-01T06:14:34;99849.22;;;4.55;99.51
35519;BME280;21627;48.216;16.482;2023-02-01T06:17:02;99845.31;;;4.69;98.62
35519;BME280;21627;48.216;16.482;2023-02-01T06:19:29;99863.25;;;4.69;98.54
35519;BME280;21627;48.216;16.482;2023-02-01T06:21:57;99856.72;;;4.82;100.00
35519;BME280;21627;48.216;16.482;2023-02-01T06:24:24;99865.09;;;5.10;96.67
35519;BME280;21627;48.216;16.482;2023-02-01T06:26:51;99879.41;;;5.02;94.74
35519;BME280;21627;48.216;16.482;2023-02-01T06:29:19;99855.25;;;4.92;96.09
35519;BME280;21627;48.216;16.482;2023-02-01T06:31:46;99878.66;;;5.06;95.91
35519;BME280;21627;48.216;16.482;2023-02-01T06:34:13;99887.13;;;5.03;95.99
35519;BME280;21627;48.216;16.482;2023-02-01T06:36:40;99882.84;;;5.02;95.85
35519;BME280;21627;48.216;16.482;2023-02-01T06:39:07;99886.19;;;4.99;97.27
35519;BME280;21627;48.216;16.482;2023-02-01T06:41:38;99892.22;;;5.02;96.33
35519;BME280;21627;48.216;16.482;2023-02-01T06:44:05;99881.88;;;4.97;95.35
35519;BME280;21627;48.216;16.482;2023-02-01T06:46:33;99891.50;;;5.07;94.80
35519;BME280;21627;48.216;16.482;2023-02-01T06:49:00;99893.22;;;5.07;95.24
35519;BME280;21627;48.216;16.482;2023-02-01T06:51:28;99898.34;;;5.08;95.71
35519;BME280;21627;48.216;16.482;2023-02-01T06:53:56;99904.44;;;5.12;97.64
35519;BME280;21627;48.216;16.482;2023-02-01T06:56:24;99914.63;;;5.10;96.77
35519;BME280;21627;48.216;16.482;2023-02-01T06:58:52;99906.22;;;5.16;96.98
35519;BME280;21627;48.216;16.482;2023-02-01T07:01:23;99888.97;;;5.09;96.96
35519;BME280;21627;48.216;16.482;2023-02-01T07:03:51;99900.09;;;5.09;97.21
35519;BME280;21627;48.216;16.482;2023-02-01T07:06:18;99893.28;;;5.11;96.87
35519;BME280;21627;48.216;16.482;2023-02-01T07:08:46;99897.69;;;5.15;97.37
35519;BME280;21627;48.216;16.482;2023-02-01T07:11:18;99909.56;;;5.13;98.89
35519;BME280;21627;48.216;16.482;2023-02-01T07:13:45;99895.84;;;5.10;99.92
35519;BME280;21627;48.216;16.482;2023-02-01T07:16:18;99888.94;;;5.07;98.71
35519;BME280;21627;48.216;16.482;2023-02-01T07:18:47;99889.84;;;5.09;98.27
35519;BME280;21627;48.216;16.482;2023-02-01T07:21:14;99887.28;;;5.09;96.88
35519;BME280;21627;48.216;16.482;2023-02-01T07:23:41;99897.00;;;5.23;95.76
35519;BME280;21627;48.216;16.482;2023-02-01T07:26:11;99890.13;;;5.21;95.26
35519;BME280;21627;48.216;16.482;2023-02-01T07:28:40;99892.63;;;5.18;96.04
35519;BME280;21627;48.216;16.482;2023-02-01T07:31:17;99881.69;;;5.26;94.80
35519;BME280;21627;48.216;16.482;2023-02-01T07:33:49;99884.31;;;5.29;94.46
35519;BME280;21627;48.216;16.482;2023-02-01T07:36:20;99897.22;;;5.32;93.77
35519;BME280;21627;48.216;16.482;2023-02-01T07:38:47;99898.88;;;5.30;93.74
35519;BME280;21627;48.216;16.482;2023-02-01T07:41:18;99890.53;;;5.38;92.78
35519;BME280;21627;48.216;16.482;2023-02-01T07:43:45;99900.88;;;5.43;92.33
35519;BME280;21627;48.216;16.482;2023-02-01T07:46:13;99898.16;;;5.35;91.44
35519;BME280;21627;48.216;16.482;2023-02-01T07:48:42;99904.19;;;5.39;92.88
35519;BME280;21627;48.216;16.482;2023-02-01T07:51:13;99876.56;;;5.26;92.71
35519;BME280;21627;48.216;16.482;2023-02-01T07:53:41;99900.88;;;5.43;91.76
35519;BME280;21627;48.216;16.482;2023-02-01T07:56:15;99899.41;;;5.54;90.94
35519;BME280;21627;48.216;16.482;2023-02-01T07:58:51;99890.97;;;5.58;89.18
35519;BME280;21627;48.216;16.482;2023-02-01T08:01:24;99892.53;;;5.52;89.50
35519;BME280;21627;48.216;16.482;2023-02-01T08:03:57;99891.03;;;5.60;89.12
35519;BME280;21627;48.216;16.482;2023-02-01T08:06:33;99898.19;;;5.75;89.36
35519;BME280;21627;48.216;16.482;2023-02-01T08:09:02;99878.31;;;5.64;89.67
35519;BME280;21627;48.216;16.482;2023-02-01T08:11:29;99889.31;;;5.60;89.66
35519;BME280;21627;48.216;16.482;2023-02-01T08:13:58;99880.66;;;5.55;91.15
35519;BME280;21627;48.216;16.482;2023-02-01T08:16:25;99888.00;;;5.79;89.43
35519;BME280;21627;48.216;16.482;2023-02-01T08:18:53;99868.09;;;5.68;90.33
35519;BME280;21627;48.216;16.482;2023-02-01T08:21:27;99851.06;;;5.70;91.77
35519;BME280;21627;48.216;16.482;2023-02-01T08:24:05;99858.59;;;5.63;93.46
35519;BME280;21627;48.216;16.482;2023-02-01T08:26:33;99862.16;;;5.70;92.06
35519;BME280;21627;48.216;16.482;2023-02-01T08:29:05;99850.31;;;5.75;92.38
35519;BME280;21627;48.216;16.482;2023-02-01T08:31:32;99839.88;;;5.68;92.95
35519;BME280;21627;48.216;16.482;2023-02-01T08:34:03;99848.84;;;5.88;90.86
35519;BME280;21627;48.216;16.482;2023-02-01T08:36:35;99841.91;;;5.84;92.34
35519;BME280;21627;48.216;16.482;2023-02-01T08:39:04;99850.06;;;6.04;89.93
35519;BME280;21627;48.216;16.482;2023-02-01T08:41:36;99838.88;;;6.00;90.11
35519;BME280;21627;48.216;16.482;2023-02-01T08:44:03;99823.72;;;6.13;88.13
35519;BME280;21627;48.216;16.482;2023-02-01T08:46:31;99845.19;;;6.18;88.54
35519;BME280;21627;48.216;16.482;2023-02-01T08:48:58;99827.22;;;6.18;87.46
35519;BME280;21627;48.216;16.482;2023-02-01T08:51:25;99839.16;;;6.16;88.72
35519;BME280;21627;48.216;16.482;2023-02-01T08:53:53;99809.78;;;6.00;87.04
35519;BME280;21627;48.216;16.482;2023-02-01T08:56:20;99830.56;;;6.14;85.51
35519;BME280;21627;48.216;16.482;2023-02-01T08:58:47;99820.25;;;6.12;84.54
35519;BME280;21627;48.216;16.482;2023-02-01T09:01:16;99834.84;;;6.13;83.97
35519;BME280;21627;48.216;16.482;2023-02-01T09:03:50;99827.25;;;6.19;84.61
35519;BME280;21627;48.216;16.482;2023-02-01T09:06:18;99840.88;;;6.15;84.30
35519;BME280;21627;48.216;16.482;2023-02-01T09:08:45;99835.69;;;6.14;84.71
35519;BME280;21627;48.216;16.482;2023-02-01T09:11:17;99853.00;;;6.24;83.35
35519;BME280;21627;48.216;16.482;2023-02-01T09:13:49;99864.13;;;6.24;83.36
35519;BME280;21627;48.216;16.482;2023-02-01T09:16:17;99862.31;;;6.19;83.57
35519;BME280;21627;48.216;16.482;2023-02-01T09:18:44;99880.44;;;6.25;87.42
35519;BME280;21627;48.216;16.482;2023-02-01T09:21:28;99875.81;;;6.09;90.58
35519;BME280;21627;48.216;16.482;2023-02-01T09:23:56;99885.31;;;6.13;93.63
35519;BME280;21627;48.216;16.482;2023-02-01T09:26:23;99880.59;;;5.93;96.94
35519;BME280;21627;48.216;16.482;2023-02-01T09:28:58;99885.53;;;5.84;95.58
35519;BME280;21627;48.216;16.482;2023-02-01T09:31:26;99864.84;;;5.75;98.48
35519;BME280;21627;48.216;16.482;2023-02-01T09:33:53;99870.94;;;5.80;96.51
35519;BME280;21627;48.216;16.482;2023-02-01T09:36:20;99863.06;;;5.72;98.89
35519;BME280;21627;48.216;16.482;2023-02-01T09:38:48;99851.81;;;5.66;99.92
35519;BME280;21627;48.216;16.482;2023-02-01T09:47:27;99840.47;;;5.56;100.00
35519;BME280;21627;48.216;16.482;2023-02-01T09:50:16;99813.94;;;5.54;100.00
35519;BME280;21627;48.216;16.482;2023-02-01T09:53:00;99834.22;;;5.43;100.00
35519;BME280;21627;48.216;16.482;2023-02-01T09:55:41;99818.78;;;5.41;100.00
35519;BME280;21627;48.216;16.482;2023-02-01T09:58:32;99823.75;;;5.32;100.00
35519;BME280;21627;48.216;16.482;2023-02-01T10:01:04;99819.41;;;5.31;100.00
35519;BME280;21627;48.216;16.482;2023-02-01T10:03:34;99819.53;;;5.36;100.00
35519;BME280;21627;48.216;16.482;2023-02-01T10:15:37;99780.75;;;5.61;100.00
35519;BME280;21627;48.216;16.482;2023-02-01T10:18:35;99762.09;;;5.69;100.00
35519;BME280;21627;48.216;16.482;2023-02-01T10:24:41;99773.03;;;6.02;99.28
35519;BME280;21627;48.216;16.482;2023-02-01T10:27:20;99771.66;;;6.21;95.73
35519;BME280;21627;48.216;16.482;2023-02-01T10:29:58;99764.84;;;6.23;94.32
35519;BME280;21627;48.216;16.482;2023-02-01T10:32:32;99766.03;;;6.42;93.65
35519;BME280;21627;48.216;16.482;2023-02-01T10:35:16;99760.19;;;6.51;92.80
35519;BME280;21627;48.216;16.482;2023-02-01T10:37:44;99773.13;;;6.56;90.40
35519;BME280;21627;48.216;16.482;2023-02-01T10:40:23;99750.94;;;6.62;90.15
35519;BME280;21627;48.216;16.482;2023-02-01T10:42:57;99750.19;;;6.68;90.11
35519;BME280;21627;48.216;16.482;2023-02-01T10:45:29;99754.56;;;6.75;88.36
35519;BME280;21627;48.216;16.482;2023-02-01T10:47:58;99758.19;;;6.86;88.25
35519;BME280;21627;48.216;16.482;2023-02-01T10:51:00;99740.94;;;6.79;86.94
35519;BME280;21627;48.216;16.482;2023-02-01T10:53:44;99738.22;;;6.70;85.28
35519;BME280;21627;48.216;16.482;2023-02-01T10:56:26;99721.00;;;6.63;85.20
35519;BME280;21627;48.216;16.482;2023-02-01T10:59:05;99744.03;;;6.60;86.95
35519;BME280;21627;48.216;16.482;2023-02-01T11:02:00;99761.06;;;6.52;88.96
35519;BME280;21627;48.216;16.482;2023-02-01T11:04:34;99749.53;;;6.28;94.45
35519;BME280;21627;48.216;16.482;2023-02-01T11:07:22;99734.00;;;6.20;96.88
35519;BME280;21627;48.216;16.482;2023-02-01T11:09:54;99759.25;;;6.47;98.20
35519;BME280;21627;48.216;16.482;2023-02-01T11:12:34;99776.56;;;6.58;95.98
35519;BME280;21627;48.216;16.482;2023-02-01T11:15:21;99774.13;;;6.67;93.53
35519;BME280;21627;48.216;16.482;2023-02-01T11:17:51;99773.84;;;6.50;96.00
35519;BME280;21627;48.216;16.482;2023-02-01T11:23:01;99768.69;;;5.98;100.00
35519;BME280;21627;48.216;16.482;2023-02-01T11:25:31;99752.06;;;5.81;100.00
35519;BME280;21627;48.216;16.482;2023-02-01T11:28:03;99759.31;;;5.58;100.00
35519;BME280;21627;48.216;16.482;2023-02-01T11:30:38;99785.06;;;5.62;100.00
35519;BME280;21627;48.216;16.482;2023-02-01T11:33:13;99785.44;;;5.40;100.00
35519;BME280;21627;48.216;16.482;2023-02-01T11:35:47;99800.66;;;5.32;100.00
35519;BME280;21627;48.216;16.482;2023-02-01T11:38:33;99800.38;;;5.20;100.00
35519;BME280;21627;48.216;16.482;2023-02-01T11:41:27;99801.75;;;5.04;100.00
35519;BME280;21627;48.216;16.482;2023-02-01T11:44:00;99808.00;;;4.81;100.00
35519;BME280;21627;48.216;16.482;2023-02-01T11:46:33;99795.19;;;4.81;100.00
35519;BME280;21627;48.216;16.482;2023-02-01T11:49:21;99797.63;;;4.74;100.00
35519;BME280;21627;48.216;16.482;2023-02-01T12:06:25;99796.50;;;4.30;100.00
35519;BME280;21627;48.216;16.482;2023-02-01T12:14:40;99781.59;;;4.14;100.00
35519;BME280;21627;48.216;16.482;2023-02-01T12:20:28;99786.06;;;4.22;100.00
35519;BME280;21627;48.216;16.482;2023-02-01T12:47:31;99739.44;;;5.92;100.00
35519;BME280;21627;48.216;16.482;2023-02-01T12:52:42;99742.47;;;5.71;100.00
35519;BME280;21627;48.216;16.482;2023-02-01T12:55:36;99731.16;;;5.59;100.00
35519;BME280;21627;48.216;16.482;2023-02-01T13:01:45;99738.28;;;6.73;100.00
35519;BME280;21627;48.216;16.482;2023-02-01T13:07:41;99719.06;;;7.79;100.00
35519;BME280;21627;48.216;16.482;2023-02-01T13:10:33;99722.88;;;8.18;100.00
35519;BME280;21627;48.216;16.482;2023-02-01T13:13:19;99719.59;;;8.39;100.00
35519;BME280;21627;48.216;16.482;2023-02-01T13:16:30;99720.78;;;8.73;99.03
35519;BME280;21627;48.216;16.482;2023-02-01T13:21:48;99705.97;;;8.44;92.46
35519;BME280;21627;48.216;16.482;2023-02-01T13:27:20;99691.13;;;8.20;91.47
35519;BME280;21627;48.216;16.482;2023-02-01T13:30:26;99681.88;;;8.41;88.96
35519;BME280;21627;48.216;16.482;2023-02-01T13:33:24;99684.53;;;8.47;89.28
35519;BME280;21627;48.216;16.482;2023-02-01T13:39:51;99667.72;;;9.14;82.21
35519;BME280;21627;48.216;16.482;2023-02-01T13:42:27;99665.22;;;9.30;80.56
35519;BME280;21627;48.216;16.482;2023-02-01T13:45:00;99659.28;;;9.65;83.93
35519;BME280;21627;48.216;16.482;2023-02-01T13:47:40;99655.84;;;9.80;77.42
35519;BME280;21627;48.216;16.482;2023-02-01T13:50:36;99660.19;;;10.03;76.01
35519;BME280;21627;48.216;16.482;2023-02-01T13:56:15;99661.94;;;10.21;67.97
35519;BME280;21627;48.216;16.482;2023-02-01T13:58:48;99663.66;;;10.26;65.07
35519;BME280;21627;48.216;16.482;2023-02-01T14:01:36;99667.13;;;10.31;62.30
35519;BME280;21627;48.216;16.482;2023-02-01T14:04:06;99681.69;;;10.00;60.69
35519;BME280;21627;48.216;16.482;2023-02-01T14:06:54;99667.97;;;10.06;61.11
35519;BME280;21627;48.216;16.482;2023-02-01T14:09:34;99665.34;;;10.10;61.67
35519;BME280;21627;48.216;16.482;2023-02-01T14:12:55;99665.38;;;10.24;60.41
35519;BME280;21627;48.216;16.482;2023-02-01T14:15:30;99647.28;;;10.27;61.51
35519;BME280;21627;48.216;16.482;2023-02-01T14:18:01;99660.22;;;10.39;60.41
35519;BME280;21627;48.216;16.482;2023-02-01T14:20:46;99655.91;;;10.23;60.71
35519;BME280;21627;48.216;16.482;2023-02-01T14:23:19;99655.88;;;10.08;60.96
35519;BME280;21627;48.216;16.482;2023-02-01T14:25:59;99657.53;;;9.67;63.93
35519;BME280;21627;48.216;16.482;2023-02-01T14:28:29;99674.81;;;9.99;63.84
35519;BME280;21627;48.216;16.482;2023-02-01T14:31:00;99673.09;;;9.93;64.07
35519;BME280;21627;48.216;16.482;2023-02-01T14:33:42;99671.34;;;9.74;64.79
35519;BME280;21627;48.216;16.482;2023-02-01T14:36:13;99666.16;;;9.62;64.55
35519;BME280;21627;48.216;16.482;2023-02-01T14:38:49;99653.19;;;9.36;65.08
35519;BME280;21627;48.216;16.482;2023-02-01T14:41:32;99678.06;;;9.18;65.41
35519;BME280;21627;48.216;16.482;2023-02-01T14:52:37;99688.13;;;8.75;68.93
35519;BME280;21627;48.216;16.482;2023-02-01T14:58:44;99705.69;;;8.18;70.09
35519;BME280;21627;48.216;16.482;2023-02-01T15:01:36;99702.84;;;7.88;72.44
35519;BME280;21627;48.216;16.482;2023-02-01T15:04:18;99714.53;;;7.58;74.14
35519;BME280;21627;48.216;16.482;2023-02-01T15:07:19;99699.44;;;7.15;76.48
35519;BME280;21627;48.216;16.482;2023-02-01T15:09:49;99710.44;;;7.05;78.30
35519;BME280;21627;48.216;16.482;2023-02-01T15:12:27;99715.31;;;6.85;78.53
35519;BME280;21627;48.216;16.482;2023-02-01T15:15:21;99715.94;;;6.69;80.38
35519;BME280;21627;48.216;16.482;2023-02-01T15:20:26;99692.13;;;6.24;83.26
35519;BME280;21627;48.216;16.482;2023-02-01T15:23:00;99715.13;;;6.20;83.73
35519;BME280;21627;48.216;16.482;2023-02-01T15:25:36;99705.69;;;6.16;83.57
35519;BME280;21627;48.216;16.482;2023-02-01T15:28:16;99702.81;;;5.99;83.88
35519;BME280;21627;48.216;16.482;2023-02-01T15:31:02;99703.53;;;5.93;84.68
35519;BME280;21627;48.216;16.482;2023-02-01T15:33:31;99715.56;;;5.94;83.12
35519;BME280;21627;48.216;16.482;2023-02-01T15:36:17;99724.88;;;5.91;84.09
35519;BME280;21627;48.216;16.482;2023-02-01T15:38:45;99713.75;;;5.90;83.96
35519;BME280;21627;48.216;16.482;2023-02-01T15:41:17;99704.97;;;5.77;86.58
35519;BME280;21627;48.216;16.482;2023-02-01T15:46:46;99712.53;;;5.70;86.26
35519;BME280;21627;48.216;16.482;2023-02-01T15:49:36;99708.78;;;5.54;87.16
35519;BME280;21627;48.216;16.482;2023-02-01T15:54:59;99726.47;;;5.40;87.88
35519;BME280;21627;48.216;16.482;2023-02-01T15:57:33;99720.50;;;5.41;88.71
35519;BME280;21627;48.216;16.482;2023-02-01T16:00:08;99728.94;;;5.35;87.62